Aurora, CO (80010)

2:12 PM MDT on July 27, 2016 (GMT -0600)
stapleton bluff lake | | Change Station

Elev 5348 ft 39.76 °N, 104.86 °W | Updated 1 minute ago

Partly Cloudy
Partly Cloudy
89.8 °F
Feels Like 87 °F
N
5.0
Wind Variable Wind from ESE
Gusts 8.0 mph

Today
High -- | Low -- °F
--% Chance of Precip.
Yesterday
High -- | Low -- °F
Precip. -- in
Pressure 29.95 in
Visibility 10.0 miles
Clouds Few 10000 ft
Few 20000 ft
Heat Index 87 °F
Dew Point 54 °F
Humidity 29%
Rainfall 0.00 in
Snow Depth Not available.
5:54 AM 8:16 PM
Last Quarter, 40% visible
METAR KBKF 271958Z 07003KT 10SM FEW100 FEW200 31/09 A3020 RMK AO2A SLP140 T03070090
Pressure 29.95 in
Visibility 10.0 miles
Clouds Few 10000 ft
Few 20000 ft
Heat Index 87 °F
Dew Point 54 °F
Humidity 29%
Rainfall 0.00 in
Snow Depth Not available.
5:54 AM 8:16 PM
Last Quarter, 40% visible
METAR KBKF 271958Z 07003KT 10SM FEW100 FEW200 31/09 A3020 RMK AO2A SLP140 T03070090

10-Day Weather Forecast

Almanac

Astronomy

Jul. 27, 2016 Rise Set
Actual Time
Civil Twilight
Nautical Twilight
Astronomical Twilight
Moon
Length of Visible Light
Length of Day
Tomorrow will be .
, % of the Moon is Illuminated

Today's Extremes

State Highs State Lows

Community

WunderPhotos

Upload Photos

1,927,931 photos uploaded!

WunderBlog® & News

Nearby

Air Quality

  Air Quality AQ Index Pollutant
Not available.

Snow Depth

Station Depth Elevation

Earthquake Activity

City Distance Mag. Time & Date
Minimum magnitude displayed is 2.5.

Coastal Water Temperatures

Place Temperature

Stations

Nearby Weather Stations

Station Location Temp. Windchill Dew Point Humidity Wind Precip. Elev Updated Type
                   

Watches & Warnings

There are currently no watches in effect.